sensor_id;sensor_type;location;lat;lon;timestamp;P1;durP1;ratioP1;P2;durP2;ratioP2
46391;SDS011;32098;49.448;7.904;2022-08-24T00:01:59;5.70;;;5.05;;
46391;SDS011;32098;49.448;7.904;2022-08-24T00:04:26;5.88;;;4.93;;
46391;SDS011;32098;49.448;7.904;2022-08-24T00:06:57;5.55;;;4.93;;
46391;SDS011;32098;49.448;7.904;2022-08-24T00:09:23;6.90;;;4.90;;
46391;SDS011;32098;49.448;7.904;2022-08-24T00:11:50;5.30;;;4.80;;
46391;SDS011;32098;49.448;7.904;2022-08-24T00:14:17;5.30;;;4.60;;
46391;SDS011;32098;49.448;7.904;2022-08-24T00:16:43;5.18;;;4.68;;
46391;SDS011;32098;49.448;7.904;2022-08-24T00:19:10;7.13;;;5.60;;
46391;SDS011;32098;49.448;7.904;2022-08-24T00:21:37;7.05;;;4.82;;
46391;SDS011;32098;49.448;7.904;2022-08-24T00:24:04;6.13;;;5.00;;
46391;SDS011;32098;49.448;7.904;2022-08-24T00:26:30;5.68;;;4.95;;
46391;SDS011;32098;49.448;7.904;2022-08-24T00:28:57;5.20;;;4.75;;
46391;SDS011;32098;49.448;7.904;2022-08-24T00:31:28;5.95;;;4.97;;
46391;SDS011;32098;49.448;7.904;2022-08-24T00:33:54;5.65;;;4.90;;
46391;SDS011;32098;49.448;7.904;2022-08-24T00:36:22;5.63;;;5.13;;
46391;SDS011;32098;49.448;7.904;2022-08-24T00:38:49;5.78;;;5.10;;
46391;SDS011;32098;49.448;7.904;2022-08-24T00:41:16;7.75;;;5.10;;
46391;SDS011;32098;49.448;7.904;2022-08-24T00:44:17;5.82;;;5.07;;
46391;SDS011;32098;49.448;7.904;2022-08-24T00:46:43;7.13;;;5.45;;
46391;SDS011;32098;49.448;7.904;2022-08-24T00:49:41;6.68;;;5.05;;
46391;SDS011;32098;49.448;7.904;2022-08-24T00:52:16;8.93;;;5.57;;
46391;SDS011;32098;49.448;7.904;2022-08-24T00:54:57;5.93;;;5.43;;
46391;SDS011;32098;49.448;7.904;2022-08-24T00:57:32;6.20;;;5.25;;
46391;SDS011;32098;49.448;7.904;2022-08-24T01:00:09;6.60;;;6.00;;
46391;SDS011;32098;49.448;7.904;2022-08-24T01:02:41;6.75;;;6.07;;
46391;SDS011;32098;49.448;7.904;2022-08-24T01:05:12;5.60;;;5.10;;
46391;SDS011;32098;49.448;7.904;2022-08-24T01:07:40;6.53;;;5.63;;
46391;SDS011;32098;49.448;7.904;2022-08-24T01:10:08;6.68;;;5.30;;
46391;SDS011;32098;49.448;7.904;2022-08-24T01:12:42;6.30;;;5.68;;
46391;SDS011;32098;49.448;7.904;2022-08-24T01:15:27;6.13;;;5.53;;
46391;SDS011;32098;49.448;7.904;2022-08-24T01:17:54;6.03;;;5.43;;
46391;SDS011;32098;49.448;7.904;2022-08-24T01:20:41;8.07;;;5.60;;
46391;SDS011;32098;49.448;7.904;2022-08-24T01:26:18;7.43;;;5.95;;
46391;SDS011;32098;49.448;7.904;2022-08-24T01:29:07;6.78;;;5.85;;
46391;SDS011;32098;49.448;7.904;2022-08-24T01:31:37;5.90;;;5.40;;
46391;SDS011;32098;49.448;7.904;2022-08-24T01:34:04;6.50;;;5.53;;
46391;SDS011;32098;49.448;7.904;2022-08-24T01:36:48;7.13;;;6.15;;
46391;SDS011;32098;49.448;7.904;2022-08-24T01:41:52;6.88;;;5.45;;
46391;SDS011;32098;49.448;7.904;2022-08-24T01:44:19;5.70;;;5.20;;
46391;SDS011;32098;49.448;7.904;2022-08-24T01:46:48;5.45;;;4.95;;
46391;SDS011;32098;49.448;7.904;2022-08-24T01:49:19;5.80;;;5.30;;
46391;SDS011;32098;49.448;7.904;2022-08-24T01:51:48;6.45;;;5.55;;
46391;SDS011;32098;49.448;7.904;2022-08-24T01:54:15;5.70;;;5.13;;
46391;SDS011;32098;49.448;7.904;2022-08-24T01:56:41;6.53;;;5.32;;
46391;SDS011;32098;49.448;7.904;2022-08-24T01:59:09;6.50;;;5.18;;
46391;SDS011;32098;49.448;7.904;2022-08-24T02:01:40;6.22;;;5.45;;
46391;SDS011;32098;49.448;7.904;2022-08-24T02:04:10;5.72;;;5.15;;
46391;SDS011;32098;49.448;7.904;2022-08-24T02:06:44;6.88;;;5.55;;
46391;SDS011;32098;49.448;7.904;2022-08-24T02:09:12;7.05;;;5.55;;
46391;SDS011;32098;49.448;7.904;2022-08-24T02:11:39;6.15;;;5.43;;
46391;SDS011;32098;49.448;7.904;2022-08-24T02:14:10;6.22;;;5.43;;
46391;SDS011;32098;49.448;7.904;2022-08-24T02:16:39;6.32;;;5.28;;
46391;SDS011;32098;49.448;7.904;2022-08-24T02:19:06;6.55;;;5.00;;
46391;SDS011;32098;49.448;7.904;2022-08-24T02:25:21;6.03;;;5.20;;
46391;SDS011;32098;49.448;7.904;2022-08-24T02:27:49;5.97;;;5.32;;
46391;SDS011;32098;49.448;7.904;2022-08-24T02:30:16;5.80;;;5.20;;
46391;SDS011;32098;49.448;7.904;2022-08-24T02:32:43;6.40;;;5.50;;
46391;SDS011;32098;49.448;7.904;2022-08-24T02:35:09;6.00;;;5.40;;
46391;SDS011;32098;49.448;7.904;2022-08-24T02:37:36;6.07;;;5.57;;
46391;SDS011;32098;49.448;7.904;2022-08-24T02:40:11;6.03;;;5.43;;
46391;SDS011;32098;49.448;7.904;2022-08-24T02:42:38;7.50;;;6.28;;
46391;SDS011;32098;49.448;7.904;2022-08-24T02:45:07;6.03;;;5.30;;
46391;SDS011;32098;49.448;7.904;2022-08-24T02:47:34;6.50;;;5.22;;
46391;SDS011;32098;49.448;7.904;2022-08-24T02:50:05;7.30;;;5.70;;
46391;SDS011;32098;49.448;7.904;2022-08-24T02:52:34;7.97;;;5.65;;
46391;SDS011;32098;49.448;7.904;2022-08-24T02:55:03;6.10;;;5.43;;
46391;SDS011;32098;49.448;7.904;2022-08-24T02:57:30;5.97;;;5.47;;
46391;SDS011;32098;49.448;7.904;2022-08-24T02:59:57;5.95;;;5.35;;
46391;SDS011;32098;49.448;7.904;2022-08-24T03:02:24;6.45;;;5.70;;
46391;SDS011;32098;49.448;7.904;2022-08-24T03:04:52;5.68;;;5.18;;
46391;SDS011;32098;49.448;7.904;2022-08-24T03:07:19;7.50;;;5.53;;
46391;SDS011;32098;49.448;7.904;2022-08-24T03:09:45;6.65;;;6.10;;
46391;SDS011;32098;49.448;7.904;2022-08-24T03:12:12;6.88;;;6.18;;
46391;SDS011;32098;49.448;7.904;2022-08-24T03:14:38;5.95;;;5.45;;
46391;SDS011;32098;49.448;7.904;2022-08-24T03:17:06;7.20;;;6.40;;
46391;SDS011;32098;49.448;7.904;2022-08-24T03:19:33;6.70;;;6.10;;
46391;SDS011;32098;49.448;7.904;2022-08-24T03:21:59;8.60;;;6.55;;
46391;SDS011;32098;49.448;7.904;2022-08-24T03:24:26;6.70;;;5.97;;
46391;SDS011;32098;49.448;7.904;2022-08-24T03:26:53;6.28;;;5.68;;
46391;SDS011;32098;49.448;7.904;2022-08-24T03:29:20;7.45;;;6.10;;
46391;SDS011;32098;49.448;7.904;2022-08-24T03:31:49;7.68;;;6.07;;
46391;SDS011;32098;49.448;7.904;2022-08-24T03:34:16;6.75;;;6.15;;
46391;SDS011;32098;49.448;7.904;2022-08-24T03:36:43;7.28;;;6.43;;
46391;SDS011;32098;49.448;7.904;2022-08-24T03:39:14;8.13;;;6.32;;
46391;SDS011;32098;49.448;7.904;2022-08-24T03:41:41;6.13;;;5.53;;
46391;SDS011;32098;49.448;7.904;2022-08-24T03:44:07;6.70;;;6.10;;
46391;SDS011;32098;49.448;7.904;2022-08-24T03:46:35;7.50;;;5.90;;
46391;SDS011;32098;49.448;7.904;2022-08-24T03:49:05;6.70;;;6.00;;
46391;SDS011;32098;49.448;7.904;2022-08-24T03:51:34;8.40;;;6.30;;
46391;SDS011;32098;49.448;7.904;2022-08-24T03:54:04;6.55;;;5.70;;
46391;SDS011;32098;49.448;7.904;2022-08-24T03:56:33;7.68;;;6.13;;
46391;SDS011;32098;49.448;7.904;2022-08-24T03:59:01;6.68;;;5.90;;
46391;SDS011;32098;49.448;7.904;2022-08-24T04:01:32;6.90;;;6.30;;
46391;SDS011;32098;49.448;7.904;2022-08-24T04:03:59;6.50;;;5.90;;
46391;SDS011;32098;49.448;7.904;2022-08-24T04:06:29;6.90;;;6.03;;
46391;SDS011;32098;49.448;7.904;2022-08-24T04:08:56;5.78;;;5.25;;
46391;SDS011;32098;49.448;7.904;2022-08-24T04:11:24;7.40;;;5.65;;
46391;SDS011;32098;49.448;7.904;2022-08-24T04:13:53;6.40;;;5.80;;
46391;SDS011;32098;49.448;7.904;2022-08-24T04:16:25;6.47;;;5.68;;
46391;SDS011;32098;49.448;7.904;2022-08-24T04:19:02;6.78;;;6.07;;
46391;SDS011;32098;49.448;7.904;2022-08-24T04:21:31;6.80;;;6.15;;
46391;SDS011;32098;49.448;7.904;2022-08-24T04:24:03;7.10;;;6.40;;
46391;SDS011;32098;49.448;7.904;2022-08-24T04:26:30;8.27;;;6.10;;
46391;SDS011;32098;49.448;7.904;2022-08-24T04:29:12;6.78;;;6.00;;
46391;SDS011;32098;49.448;7.904;2022-08-24T04:31:45;6.20;;;5.63;;
46391;SDS011;32098;49.448;7.904;2022-08-24T04:34:13;6.68;;;6.00;;
46391;SDS011;32098;49.448;7.904;2022-08-24T04:36:41;6.65;;;5.95;;
46391;SDS011;32098;49.448;7.904;2022-08-24T04:39:10;7.57;;;6.65;;
46391;SDS011;32098;49.448;7.904;2022-08-24T04:42:04;7.18;;;6.00;;
46391;SDS011;32098;49.448;7.904;2022-08-24T04:44:35;6.68;;;5.90;;
46391;SDS011;32098;49.448;7.904;2022-08-24T04:47:02;6.28;;;5.68;;
46391;SDS011;32098;49.448;7.904;2022-08-24T04:49:29;10.27;;;6.40;;
46391;SDS011;32098;49.448;7.904;2022-08-24T04:51:57;7.28;;;6.53;;
46391;SDS011;32098;49.448;7.904;2022-08-24T04:54:24;7.50;;;6.20;;
46391;SDS011;32098;49.448;7.904;2022-08-24T04:57:07;6.83;;;6.13;;
46391;SDS011;32098;49.448;7.904;2022-08-24T04:59:34;7.80;;;6.97;;
46391;SDS011;32098;49.448;7.904;2022-08-24T05:02:01;8.77;;;6.17;;
46391;SDS011;32098;49.448;7.904;2022-08-24T05:04:27;7.20;;;6.50;;
46391;SDS011;32098;49.448;7.904;2022-08-24T05:06:56;7.27;;;6.37;;
46391;SDS011;32098;49.448;7.904;2022-08-24T05:09:23;7.90;;;7.00;;
46391;SDS011;32098;49.448;7.904;2022-08-24T05:11:49;7.23;;;6.53;;
46391;SDS011;32098;49.448;7.904;2022-08-24T05:14:21;7.57;;;6.63;;
46391;SDS011;32098;49.448;7.904;2022-08-24T05:16:53;7.97;;;6.63;;
46391;SDS011;32098;49.448;7.904;2022-08-24T05:19:21;7.17;;;6.40;;
46391;SDS011;32098;49.448;7.904;2022-08-24T05:21:49;7.10;;;6.40;;
46391;SDS011;32098;49.448;7.904;2022-08-24T05:24:16;7.00;;;6.30;;
46391;SDS011;32098;49.448;7.904;2022-08-24T05:26:44;7.25;;;6.45;;
46391;SDS011;32098;49.448;7.904;2022-08-24T05:29:11;9.45;;;6.78;;
46391;SDS011;32098;49.448;7.904;2022-08-24T05:31:43;7.50;;;6.43;;
46391;SDS011;32098;49.448;7.904;2022-08-24T05:34:11;7.63;;;6.90;;
46391;SDS011;32098;49.448;7.904;2022-08-24T05:36:40;8.70;;;6.82;;
46391;SDS011;32098;49.448;7.904;2022-08-24T05:39:14;9.05;;;6.65;;
46391;SDS011;32098;49.448;7.904;2022-08-24T05:41:49;6.85;;;6.15;;
46391;SDS011;32098;49.448;7.904;2022-08-24T05:44:21;7.15;;;6.47;;
46391;SDS011;32098;49.448;7.904;2022-08-24T05:46:54;6.72;;;6.05;;
46391;SDS011;32098;49.448;7.904;2022-08-24T05:49:23;7.43;;;6.28;;
46391;SDS011;32098;49.448;7.904;2022-08-24T05:51:51;7.20;;;6.28;;
46391;SDS011;32098;49.448;7.904;2022-08-24T05:54:18;6.68;;;6.03;;
46391;SDS011;32098;49.448;7.904;2022-08-24T05:56:52;7.97;;;6.38;;
46391;SDS011;32098;49.448;7.904;2022-08-24T05:59:20;6.35;;;5.68;;
46391;SDS011;32098;49.448;7.904;2022-08-24T06:01:48;7.60;;;5.47;;
46391;SDS011;32098;49.448;7.904;2022-08-24T06:04:16;6.32;;;5.70;;
46391;SDS011;32098;49.448;7.904;2022-08-24T06:06:42;6.53;;;5.93;;
46391;SDS011;32098;49.448;7.904;2022-08-24T06:09:14;5.97;;;5.40;;
46391;SDS011;32098;49.448;7.904;2022-08-24T06:11:41;5.93;;;5.38;;
46391;SDS011;32098;49.448;7.904;2022-08-24T06:14:10;5.93;;;5.43;;
46391;SDS011;32098;49.448;7.904;2022-08-24T06:16:48;6.25;;;5.45;;
46391;SDS011;32098;49.448;7.904;2022-08-24T06:19:16;6.78;;;5.30;;
46391;SDS011;32098;49.448;7.904;2022-08-24T06:21:45;5.93;;;5.32;;
46391;SDS011;32098;49.448;7.904;2022-08-24T06:24:14;6.75;;;5.53;;
46391;SDS011;32098;49.448;7.904;2022-08-24T06:26:43;6.13;;;5.53;;
46391;SDS011;32098;49.448;7.904;2022-08-24T06:29:29;5.88;;;5.05;;
46391;SDS011;32098;49.448;7.904;2022-08-24T06:32:12;6.57;;;5.85;;
46391;SDS011;32098;49.448;7.904;2022-08-24T06:34:39;5.72;;;4.72;;
46391;SDS011;32098;49.448;7.904;2022-08-24T06:37:06;5.85;;;5.22;;
46391;SDS011;32098;49.448;7.904;2022-08-24T06:39:33;5.40;;;4.90;;
46391;SDS011;32098;49.448;7.904;2022-08-24T06:42:00;6.75;;;5.65;;
46391;SDS011;32098;49.448;7.904;2022-08-24T06:44:28;6.20;;;5.60;;
46391;SDS011;32098;49.448;7.904;2022-08-24T06:47:09;6.20;;;5.60;;
46391;SDS011;32098;49.448;7.904;2022-08-24T06:49:37;7.93;;;5.88;;
46391;SDS011;32098;49.448;7.904;2022-08-24T06:52:04;6.18;;;5.25;;
46391;SDS011;32098;49.448;7.904;2022-08-24T06:54:31;7.88;;;5.15;;
46391;SDS011;32098;49.448;7.904;2022-08-24T06:57:00;6.10;;;5.50;;
46391;SDS011;32098;49.448;7.904;2022-08-24T06:59:28;5.78;;;5.18;;
46391;SDS011;32098;49.448;7.904;2022-08-24T07:01:56;6.00;;;5.05;;
46391;SDS011;32098;49.448;7.904;2022-08-24T07:04:26;6.78;;;5.10;;
46391;SDS011;32098;49.448;7.904;2022-08-24T07:07:12;5.82;;;5.25;;
46391;SDS011;32098;49.448;7.904;2022-08-24T07:09:41;6.72;;;5.28;;
46391;SDS011;32098;49.448;7.904;2022-08-24T07:12:07;5.20;;;4.70;;
46391;SDS011;32098;49.448;7.904;2022-08-24T07:14:35;4.95;;;4.53;;
46391;SDS011;32098;49.448;7.904;2022-08-24T07:17:02;6.28;;;4.75;;
46391;SDS011;32098;49.448;7.904;2022-08-24T07:19:30;5.25;;;4.80;;
46391;SDS011;32098;49.448;7.904;2022-08-24T07:21:57;5.53;;;4.38;;
46391;SDS011;32098;49.448;7.904;2022-08-24T07:24:25;6.05;;;4.63;;
46391;SDS011;32098;49.448;7.904;2022-08-24T07:26:52;5.00;;;4.50;;
46391;SDS011;32098;49.448;7.904;2022-08-24T07:29:19;4.72;;;4.25;;
46391;SDS011;32098;49.448;7.904;2022-08-24T07:32:07;5.40;;;4.03;;
46391;SDS011;32098;49.448;7.904;2022-08-24T07:34:38;4.45;;;3.80;;
46391;SDS011;32098;49.448;7.904;2022-08-24T07:37:06;4.07;;;3.67;;
46391;SDS011;32098;49.448;7.904;2022-08-24T07:39:35;5.00;;;3.30;;
46391;SDS011;32098;49.448;7.904;2022-08-24T07:42:01;3.70;;;3.40;;
46391;SDS011;32098;49.448;7.904;2022-08-24T07:44:49;3.45;;;3.22;;
46391;SDS011;32098;49.448;7.904;2022-08-24T07:47:16;5.18;;;3.30;;
46391;SDS011;32098;49.448;7.904;2022-08-24T07:50:10;3.72;;;3.05;;
46391;SDS011;32098;49.448;7.904;2022-08-24T07:52:38;3.78;;;2.78;;
46391;SDS011;32098;49.448;7.904;2022-08-24T07:55:05;3.05;;;2.78;;
46391;SDS011;32098;49.448;7.904;2022-08-24T07:57:33;5.00;;;2.78;;
46391;SDS011;32098;49.448;7.904;2022-08-24T08:00:01;3.20;;;2.90;;
46391;SDS011;32098;49.448;7.904;2022-08-24T08:02:39;3.67;;;2.47;;
46391;SDS011;32098;49.448;7.904;2022-08-24T08:05:09;2.72;;;2.50;;
46391;SDS011;32098;49.448;7.904;2022-08-24T08:07:42;3.75;;;2.55;;
46391;SDS011;32098;49.448;7.904;2022-08-24T08:10:11;5.03;;;2.67;;
46391;SDS011;32098;49.448;7.904;2022-08-24T08:12:38;2.83;;;2.15;;
46391;SDS011;32098;49.448;7.904;2022-08-24T08:15:06;3.05;;;2.63;;
46391;SDS011;32098;49.448;7.904;2022-08-24T08:17:37;4.05;;;2.50;;
46391;SDS011;32098;49.448;7.904;2022-08-24T08:20:05;2.92;;;2.45;;
46391;SDS011;32098;49.448;7.904;2022-08-24T08:22:35;3.47;;;2.50;;
46391;SDS011;32098;49.448;7.904;2022-08-24T08:25:53;6.03;;;3.17;;
46391;SDS011;32098;49.448;7.904;2022-08-24T08:28:35;4.35;;;2.40;;
46391;SDS011;32098;49.448;7.904;2022-08-24T08:31:04;4.53;;;3.00;;
46391;SDS011;32098;49.448;7.904;2022-08-24T08:33:32;3.35;;;2.80;;
46391;SDS011;32098;49.448;7.904;2022-08-24T08:36:05;3.05;;;2.42;;
46391;SDS011;32098;49.448;7.904;2022-08-24T08:38:39;3.47;;;2.55;;
46391;SDS011;32098;49.448;7.904;2022-08-24T08:47:09;4.95;;;2.60;;
46391;SDS011;32098;49.448;7.904;2022-08-24T08:55:25;4.03;;;2.50;;
46391;SDS011;32098;49.448;7.904;2022-08-24T08:58:13;4.07;;;2.42;;
46391;SDS011;32098;49.448;7.904;2022-08-24T09:06:46;2.55;;;2.35;;
46391;SDS011;32098;49.448;7.904;2022-08-24T09:12:19;3.35;;;2.45;;
46391;SDS011;32098;49.448;7.904;2022-08-24T09:15:02;4.20;;;2.75;;
46391;SDS011;32098;49.448;7.904;2022-08-24T09:17:59;3.83;;;2.30;;
46391;SDS011;32098;49.448;7.904;2022-08-24T09:26:37;2.70;;;2.50;;
46391;SDS011;32098;49.448;7.904;2022-08-24T09:29:15;2.65;;;2.45;;
46391;SDS011;32098;49.448;7.904;2022-08-24T09:32:13;2.60;;;2.40;;
46391;SDS011;32098;49.448;7.904;2022-08-24T09:35:32;2.85;;;2.55;;
46391;SDS011;32098;49.448;7.904;2022-08-24T09:40:35;5.40;;;2.00;;
46391;SDS011;32098;49.448;7.904;2022-08-24T09:43:08;3.78;;;2.22;;
46391;SDS011;32098;49.448;7.904;2022-08-24T10:00:27;2.40;;;2.20;;
46391;SDS011;32098;49.448;7.904;2022-08-24T10:16:59;2.10;;;1.90;;
46391;SDS011;32098;49.448;7.904;2022-08-24T10:25:30;2.20;;;1.88;;
46391;SDS011;32098;49.448;7.904;2022-08-24T10:33:21;3.92;;;2.08;;
46391;SDS011;32098;49.448;7.904;2022-08-24T10:48:36;3.58;;;2.30;;
46391;SDS011;32098;49.448;7.904;2022-08-24T10:54:05;4.53;;;2.13;;
46391;SDS011;32098;49.448;7.904;2022-08-24T11:04:38;3.55;;;2.35;;
46391;SDS011;32098;49.448;7.904;2022-08-24T11:07:16;3.97;;;2.35;;
46391;SDS011;32098;49.448;7.904;2022-08-24T11:09:52;3.47;;;2.08;;
46391;SDS011;32098;49.448;7.904;2022-08-24T11:12:30;3.75;;;2.30;;
46391;SDS011;32098;49.448;7.904;2022-08-24T11:17:54;5.50;;;2.25;;
46391;SDS011;32098;49.448;7.904;2022-08-24T11:20:27;4.10;;;2.17;;
46391;SDS011;32098;49.448;7.904;2022-08-24T11:23:09;3.00;;;2.00;;
46391;SDS011;32098;49.448;7.904;2022-08-24T11:25:52;3.70;;;2.00;;
46391;SDS011;32098;49.448;7.904;2022-08-24T11:28:24;4.78;;;2.50;;
46391;SDS011;32098;49.448;7.904;2022-08-24T11:30:57;4.25;;;2.10;;
46391;SDS011;32098;49.448;7.904;2022-08-24T11:33:30;4.15;;;2.38;;
46391;SDS011;32098;49.448;7.904;2022-08-24T11:36:00;3.50;;;2.33;;
46391;SDS011;32098;49.448;7.904;2022-08-24T11:38:29;3.28;;;2.33;;
46391;SDS011;32098;49.448;7.904;2022-08-24T11:41:12;3.20;;;2.10;;
46391;SDS011;32098;49.448;7.904;2022-08-24T11:46:42;3.30;;;2.20;;
46391;SDS011;32098;49.448;7.904;2022-08-24T11:52:26;3.35;;;2.30;;
46391;SDS011;32098;49.448;7.904;2022-08-24T12:00:20;7.35;;;2.50;;
46391;SDS011;32098;49.448;7.904;2022-08-24T12:05:44;4.47;;;2.40;;
46391;SDS011;32098;49.448;7.904;2022-08-24T12:08:32;5.57;;;2.00;;
46391;SDS011;32098;49.448;7.904;2022-08-24T12:11:14;3.40;;;2.10;;
46391;SDS011;32098;49.448;7.904;2022-08-24T12:13:47;5.68;;;2.10;;
46391;SDS011;32098;49.448;7.904;2022-08-24T12:16:27;4.65;;;2.20;;
46391;SDS011;32098;49.448;7.904;2022-08-24T12:21:47;3.92;;;2.38;;
46391;SDS011;32098;49.448;7.904;2022-08-24T12:27:18;3.35;;;2.38;;
46391;SDS011;32098;49.448;7.904;2022-08-24T12:30:04;3.60;;;2.45;;
46391;SDS011;32098;49.448;7.904;2022-08-24T12:32:44;6.03;;;2.60;;
46391;SDS011;32098;49.448;7.904;2022-08-24T12:35:27;3.70;;;2.47;;
46391;SDS011;32098;49.448;7.904;2022-08-24T12:37:58;4.88;;;2.47;;
46391;SDS011;32098;49.448;7.904;2022-08-24T12:40:41;4.43;;;2.47;;
46391;SDS011;32098;49.448;7.904;2022-08-24T12:43:22;2.83;;;2.20;;
46391;SDS011;32098;49.448;7.904;2022-08-24T12:45:55;4.57;;;2.40;;
46391;SDS011;32098;49.448;7.904;2022-08-24T12:51:08;4.15;;;2.58;;
46391;SDS011;32098;49.448;7.904;2022-08-24T12:57:23;3.50;;;2.28;;
46391;SDS011;32098;49.448;7.904;2022-08-24T12:59:56;2.50;;;2.25;;
46391;SDS011;32098;49.448;7.904;2022-08-24T13:02:39;3.75;;;2.08;;
46391;SDS011;32098;49.448;7.904;2022-08-24T13:05:17;2.63;;;2.20;;
46391;SDS011;32098;49.448;7.904;2022-08-24T13:07:47;2.95;;;2.40;;
46391;SDS011;32098;49.448;7.904;2022-08-24T13:13:06;3.58;;;2.47;;
46391;SDS011;32098;49.448;7.904;2022-08-24T13:31:28;4.30;;;2.40;;
46391;SDS011;32098;49.448;7.904;2022-08-24T13:33:52;3.63;;;2.30;;
46391;SDS011;32098;49.448;7.904;2022-08-24T13:59:00;2.72;;;2.20;;
46391;SDS011;32098;49.448;7.904;2022-08-24T14:04:32;5.97;;;2.30;;
46391;SDS011;32098;49.448;7.904;2022-08-24T14:07:17;3.17;;;2.30;;
46391;SDS011;32098;49.448;7.904;2022-08-24T14:12:56;3.03;;;2.40;;
46391;SDS011;32098;49.448;7.904;2022-08-24T14:15:45;4.20;;;2.20;;
46391;SDS011;32098;49.448;7.904;2022-08-24T14:21:49;2.58;;;2.38;;
46391;SDS011;32098;49.448;7.904;2022-08-24T14:33:30;3.72;;;2.55;;
46391;SDS011;32098;49.448;7.904;2022-08-24T14:36:40;2.53;;;2.33;;
46391;SDS011;32098;49.448;7.904;2022-08-24T14:41:39;2.70;;;2.28;;
46391;SDS011;32098;49.448;7.904;2022-08-24T14:46:58;5.05;;;2.50;;
46391;SDS011;32098;49.448;7.904;2022-08-24T14:49:36;2.78;;;2.30;;
46391;SDS011;32098;49.448;7.904;2022-08-24T14:52:41;2.25;;;2.05;;
46391;SDS011;32098;49.448;7.904;2022-08-24T15:09:06;2.30;;;2.10;;
46391;SDS011;32098;49.448;7.904;2022-08-24T15:11:36;2.22;;;1.90;;
46391;SDS011;32098;49.448;7.904;2022-08-24T15:14:06;2.67;;;2.00;;
46391;SDS011;32098;49.448;7.904;2022-08-24T15:16:50;3.42;;;2.08;;
46391;SDS011;32098;49.448;7.904;2022-08-24T15:19:34;4.55;;;2.45;;
46391;SDS011;32098;49.448;7.904;2022-08-24T15:22:07;3.30;;;2.13;;
46391;SDS011;32098;49.448;7.904;2022-08-24T15:24:48;2.33;;;2.08;;
46391;SDS011;32098;49.448;7.904;2022-08-24T15:27:27;2.30;;;2.10;;
46391;SDS011;32098;49.448;7.904;2022-08-24T15:29:59;4.68;;;2.33;;
46391;SDS011;32098;49.448;7.904;2022-08-24T15:32:40;4.25;;;2.30;;
46391;SDS011;32098;49.448;7.904;2022-08-24T15:35:23;2.75;;;2.10;;
46391;SDS011;32098;49.448;7.904;2022-08-24T15:37:54;2.55;;;2.25;;
46391;SDS011;32098;49.448;7.904;2022-08-24T15:40:28;2.22;;;2.03;;
46391;SDS011;32098;49.448;7.904;2022-08-24T15:43:00;2.55;;;1.90;;
46391;SDS011;32098;49.448;7.904;2022-08-24T15:45:30;4.88;;;2.08;;
46391;SDS011;32098;49.448;7.904;2022-08-24T15:47:58;3.25;;;1.98;;
46391;SDS011;32098;49.448;7.904;2022-08-24T15:50:28;4.28;;;1.92;;
46391;SDS011;32098;49.448;7.904;2022-08-24T15:53:02;4.93;;;2.28;;
46391;SDS011;32098;49.448;7.904;2022-08-24T15:55:34;4.07;;;2.10;;
46391;SDS011;32098;49.448;7.904;2022-08-24T16:00:41;3.35;;;2.00;;
46391;SDS011;32098;49.448;7.904;2022-08-24T16:03:42;5.43;;;2.30;;
46391;SDS011;32098;49.448;7.904;2022-08-24T16:06:16;3.50;;;2.03;;
46391;SDS011;32098;49.448;7.904;2022-08-24T16:11:28;2.20;;;1.90;;
46391;SDS011;32098;49.448;7.904;2022-08-24T16:14:10;4.63;;;2.35;;
46391;SDS011;32098;49.448;7.904;2022-08-24T16:16:57;4.60;;;2.08;;
46391;SDS011;32098;49.448;7.904;2022-08-24T16:19:27;2.42;;;1.75;;
46391;SDS011;32098;49.448;7.904;2022-08-24T16:22:00;3.33;;;2.30;;
46391;SDS011;32098;49.448;7.904;2022-08-24T16:24:30;2.58;;;2.00;;
46391;SDS011;32098;49.448;7.904;2022-08-24T16:27:08;2.35;;;2.03;;
46391;SDS011;32098;49.448;7.904;2022-08-24T16:37:34;3.20;;;2.05;;
46391;SDS011;32098;49.448;7.904;2022-08-24T16:40:01;2.35;;;1.90;;
46391;SDS011;32098;49.448;7.904;2022-08-24T16:42:29;4.15;;;2.22;;
46391;SDS011;32098;49.448;7.904;2022-08-24T16:44:57;2.38;;;2.13;;
46391;SDS011;32098;49.448;7.904;2022-08-24T16:47:25;2.42;;;1.83;;
46391;SDS011;32098;49.448;7.904;2022-08-24T16:49:53;2.85;;;2.05;;
46391;SDS011;32098;49.448;7.904;2022-08-24T16:52:19;3.67;;;2.08;;
46391;SDS011;32098;49.448;7.904;2022-08-24T16:54:47;3.25;;;2.10;;
46391;SDS011;32098;49.448;7.904;2022-08-24T16:57:15;2.45;;;2.25;;
46391;SDS011;32098;49.448;7.904;2022-08-24T16:59:47;2.20;;;2.00;;
46391;SDS011;32098;49.448;7.904;2022-08-24T17:02:16;3.72;;;2.10;;
46391;SDS011;32098;49.448;7.904;2022-08-24T17:04:44;2.35;;;1.98;;
46391;SDS011;32098;49.448;7.904;2022-08-24T17:07:11;2.38;;;2.17;;
46391;SDS011;32098;49.448;7.904;2022-08-24T17:09:42;3.30;;;2.40;;
46391;SDS011;32098;49.448;7.904;2022-08-24T17:12:11;2.70;;;1.92;;
46391;SDS011;32098;49.448;7.904;2022-08-24T17:14:38;6.97;;;2.30;;
46391;SDS011;32098;49.448;7.904;2022-08-24T17:17:09;3.80;;;2.30;;
46391;SDS011;32098;49.448;7.904;2022-08-24T17:19:38;5.50;;;2.22;;
46391;SDS011;32098;49.448;7.904;2022-08-24T17:22:09;2.65;;;1.90;;
46391;SDS011;32098;49.448;7.904;2022-08-24T17:24:41;2.55;;;1.92;;
46391;SDS011;32098;49.448;7.904;2022-08-24T17:27:08;3.20;;;1.90;;
46391;SDS011;32098;49.448;7.904;2022-08-24T17:29:35;5.28;;;2.22;;
46391;SDS011;32098;49.448;7.904;2022-08-24T17:32:01;3.42;;;1.90;;
46391;SDS011;32098;49.448;7.904;2022-08-24T17:34:28;3.40;;;2.33;;
46391;SDS011;32098;49.448;7.904;2022-08-24T17:36:55;3.50;;;2.03;;
46391;SDS011;32098;49.448;7.904;2022-08-24T17:39:22;2.20;;;2.00;;
46391;SDS011;32098;49.448;7.904;2022-08-24T17:41:50;2.78;;;2.25;;
46391;SDS011;32098;49.448;7.904;2022-08-24T17:44:19;5.07;;;2.30;;
46391;SDS011;32098;49.448;7.904;2022-08-24T17:46:51;2.58;;;2.28;;
46391;SDS011;32098;49.448;7.904;2022-08-24T17:49:19;2.30;;;2.10;;
46391;SDS011;32098;49.448;7.904;2022-08-24T17:51:46;2.30;;;2.00;;
46391;SDS011;32098;49.448;7.904;2022-08-24T17:54:15;2.92;;;2.15;;
46391;SDS011;32098;49.448;7.904;2022-08-24T17:56:43;2.72;;;2.30;;
46391;SDS011;32098;49.448;7.904;2022-08-24T17:59:14;2.80;;;1.92;;
46391;SDS011;32098;49.448;7.904;2022-08-24T18:01:55;2.42;;;2.10;;
46391;SDS011;32098;49.448;7.904;2022-08-24T18:04:27;3.08;;;2.00;;
46391;SDS011;32098;49.448;7.904;2022-08-24T18:06:56;4.45;;;2.30;;
46391;SDS011;32098;49.448;7.904;2022-08-24T18:09:26;4.88;;;1.92;;
46391;SDS011;32098;49.448;7.904;2022-08-24T18:11:58;4.18;;;2.10;;
46391;SDS011;32098;49.448;7.904;2022-08-24T18:14:25;2.00;;;1.80;;
46391;SDS011;32098;49.448;7.904;2022-08-24T18:16:53;3.35;;;2.00;;
46391;SDS011;32098;49.448;7.904;2022-08-24T18:19:23;3.72;;;2.03;;
46391;SDS011;32098;49.448;7.904;2022-08-24T18:21:50;2.75;;;2.00;;
46391;SDS011;32098;49.448;7.904;2022-08-24T18:24:17;2.58;;;1.90;;
46391;SDS011;32098;49.448;7.904;2022-08-24T18:26:44;3.05;;;1.90;;
46391;SDS011;32098;49.448;7.904;2022-08-24T18:29:17;4.15;;;1.73;;
46391;SDS011;32098;49.448;7.904;2022-08-24T18:31:46;2.13;;;2.03;;
46391;SDS011;32098;49.448;7.904;2022-08-24T18:34:19;1.83;;;1.67;;
46391;SDS011;32098;49.448;7.904;2022-08-24T18:36:47;2.58;;;1.80;;
46391;SDS011;32098;49.448;7.904;2022-08-24T18:39:14;3.45;;;1.92;;
46391;SDS011;32098;49.448;7.904;2022-08-24T18:41:41;2.78;;;2.08;;
46391;SDS011;32098;49.448;7.904;2022-08-24T18:44:18;3.80;;;2.00;;
46391;SDS011;32098;49.448;7.904;2022-08-24T18:46:47;2.70;;;1.77;;
46391;SDS011;32098;49.448;7.904;2022-08-24T18:49:14;2.58;;;1.85;;
46391;SDS011;32098;49.448;7.904;2022-08-24T18:51:45;3.45;;;1.67;;
46391;SDS011;32098;49.448;7.904;2022-08-24T18:54:22;2.10;;;1.85;;
46391;SDS011;32098;49.448;7.904;2022-08-24T18:56:52;3.38;;;2.03;;
46391;SDS011;32098;49.448;7.904;2022-08-24T18:59:19;2.00;;;1.83;;
46391;SDS011;32098;49.448;7.904;2022-08-24T19:01:47;3.35;;;2.10;;